Time;durP1;ratioP1;P1;durP2;ratioP2;P2;SDS_P1;SDS_P2;PMS_P1;PMS_P2;Temp;Humidity;BMP_temperature;BMP_pressure;BME280_temperature;BME280_humidity;BME280_pressure;Samples;Min_cycle;Max_cycle;Signal;HPM_P1;HPM_P2
2022/03/14 00:00:47;;;;;;;2.53;1.92;;;19.00;44.80;;;;;;6197340;28;20081;-67
2022/03/14 00:03:53;;;;;;;3.50;2.20;;;19.00;44.80;;;;;;6197274;28;20037;-68
2022/03/14 00:06:54;;;;;;;3.35;1.98;;;19.00;44.80;;;;;;6197096;28;20034;-68
2022/03/14 00:09:54;;;;;;;3.85;2.13;;;19.00;44.80;;;;;;6196853;28;20030;-68
2022/03/14 00:12:56;;;;;;;3.28;2.05;;;19.00;44.80;;;;;;6196849;28;20030;-68
2022/03/14 00:15:57;;;;;;;4.18;2.30;;;19.00;44.80;;;;;;6197017;28;20035;-68
2022/03/14 00:18:58;;;;;;;4.82;1.95;;;19.00;44.80;;;;;;6196747;28;20037;-68
2022/03/14 00:21:59;;;;;;;3.20;2.15;;;19.00;44.80;;;;;;6196965;28;20034;-68
2022/03/14 00:25:00;;;;;;;3.60;2.15;;;19.00;44.90;;;;;;6196320;28;20023;-68
2022/03/14 00:28:00;;;;;;;3.30;2.03;;;19.00;44.80;;;;;;6196271;28;20520;-68
2022/03/14 00:31:02;;;;;;;4.65;2.20;;;19.00;44.80;;;;;;6194979;28;20141;-68
2022/03/14 00:34:02;;;;;;;3.75;2.10;;;19.00;44.90;;;;;;6196357;28;20034;-69
2022/03/14 00:37:03;;;;;;;3.60;2.13;;;19.00;44.80;;;;;;6195808;28;20493;-68
2022/03/14 00:40:07;;;;;;;3.38;2.30;;;19.00;44.80;;;;;;6196136;28;20026;-68
2022/03/14 00:43:08;;;;;;;3.15;1.95;;;19.00;44.90;;;;;;6196722;28;20353;-68
2022/03/14 00:46:08;;;;;;;5.25;2.00;;;19.00;44.90;;;;;;6196054;28;20046;-68
2022/03/14 00:49:11;;;;;;;4.05;2.08;;;19.00;44.80;;;;;;6196037;28;20026;-69
2022/03/14 00:52:12;;;;;;;3.30;2.33;;;19.00;44.90;;;;;;6195648;28;20165;-69
2022/03/14 00:55:13;;;;;;;4.45;2.63;;;19.00;44.90;;;;;;6195837;28;20027;-68
2022/03/14 00:58:14;;;;;;;4.00;2.53;;;19.00;44.90;;;;;;6196180;28;20442;-67
2022/03/14 01:01:14;;;;;;;4.50;2.60;;;19.00;44.80;;;;;;6195993;28;20436;-68
2022/03/14 01:04:15;;;;;;;3.47;2.20;;;19.00;44.80;;;;;;6195663;28;20061;-68
2022/03/14 01:07:15;;;;;;;3.83;2.65;;;19.00;44.80;;;;;;6195386;28;20030;-68
2022/03/14 01:10:16;;;;;;;3.58;2.25;;;19.00;44.90;;;;;;6195561;28;20026;-67
2022/03/14 01:13:17;;;;;;;4.55;2.60;;;19.00;44.90;;;;;;6195801;28;20048;-68
2022/03/14 01:16:18;;;;;;;3.90;2.30;;;19.00;44.90;;;;;;6195298;28;20026;-68
2022/03/14 01:19:19;;;;;;;3.80;2.30;;;19.00;44.90;;;;;;6195247;28;20549;-69
2022/03/14 01:22:20;;;;;;;4.03;2.42;;;19.00;44.90;;;;;;6195665;28;20034;-68
2022/03/14 01:25:22;;;;;;;3.58;2.08;;;19.00;44.90;;;;;;6195426;28;20054;-69
2022/03/14 01:28:23;;;;;;;4.03;2.63;;;19.00;44.90;;;;;;6194584;28;20437;-68
2022/03/14 01:31:23;;;;;;;3.58;2.38;;;19.00;44.90;;;;;;6195298;28;20080;-68
2022/03/14 01:34:24;;;;;;;7.55;2.78;;;19.00;44.90;;;;;;6194827;28;20030;-68
2022/03/14 01:37:25;;;;;;;3.65;2.42;;;19.00;44.90;;;;;;6194962;28;20038;-68
2022/03/14 01:40:26;;;;;;;3.17;2.30;;;19.00;44.90;;;;;;6194688;28;20041;-68
2022/03/14 01:43:26;;;;;;;3.88;2.47;;;19.00;44.90;;;;;;6194722;28;20026;-68
2022/03/14 01:46:27;;;;;;;5.00;2.63;;;19.00;44.90;;;;;;6194886;28;20449;-68
2022/03/14 01:49:28;;;;;;;4.85;2.58;;;19.00;44.90;;;;;;6193878;28;20100;-68
2022/03/14 01:52:28;;;;;;;4.07;2.50;;;19.00;44.90;;;;;;6194732;28;20065;-68
2022/03/14 01:55:29;;;;;;;3.63;2.30;;;19.00;44.90;;;;;;6194828;28;20054;-68
2022/03/14 01:58:30;;;;;;;3.75;2.47;;;19.00;44.90;;;;;;6194373;28;20635;-69
2022/03/14 02:01:30;;;;;;;4.72;2.35;;;19.00;44.90;;;;;;6194406;28;20022;-68
2022/03/14 02:04:31;;;;;;;3.30;2.35;;;19.00;44.90;;;;;;6194491;28;20529;-68
2022/03/14 02:07:32;;;;;;;3.50;2.30;;;19.00;44.90;;;;;;6194179;28;20153;-68
2022/03/14 02:10:34;;;;;;;4.43;2.25;;;19.00;44.90;;;;;;6194216;28;20043;-68
2022/03/14 02:13:34;;;;;;;4.30;2.60;;;19.00;45.00;;;;;;6194208;28;20105;-68
2022/03/14 02:16:35;;;;;;;4.60;2.70;;;19.00;44.90;;;;;;6193880;28;20035;-68
2022/03/14 02:19:35;;;;;;;3.95;2.58;;;19.00;44.90;;;;;;6194371;28;20116;-68
2022/03/14 02:22:36;;;;;;;5.50;2.90;;;19.00;45.00;;;;;;6193981;28;20438;-68
2022/03/14 02:25:47;;;;;;;4.10;2.70;;;19.00;45.00;;;;;;6193409;28;20466;-68
2022/03/14 02:28:48;;;;;;;4.60;2.42;;;19.00;44.90;;;;;;6194019;28;20030;-68
2022/03/14 02:31:48;;;;;;;3.80;2.53;;;19.00;44.90;;;;;;6194479;28;20030;-68
2022/03/14 02:34:49;;;;;;;4.47;2.80;;;19.00;44.90;;;;;;6194170;28;20050;-68
2022/03/14 02:37:49;;;;;;;4.13;2.40;;;19.00;44.90;;;;;;6193775;28;20027;-68
2022/03/14 02:40:50;;;;;;;4.50;2.78;;;19.00;45.00;;;;;;6193749;28;20042;-68
2022/03/14 02:43:51;;;;;;;4.95;2.60;;;19.00;44.90;;;;;;6194030;28;20026;-68
2022/03/14 02:46:52;;;;;;;4.75;2.72;;;19.00;44.90;;;;;;6193840;28;20040;-68
2022/03/14 02:49:52;;;;;;;5.05;2.85;;;19.00;44.90;;;;;;6193918;28;20038;-68
2022/03/14 02:52:53;;;;;;;5.13;3.00;;;19.00;44.90;;;;;;6193536;28;20038;-68
2022/03/14 02:55:54;;;;;;;4.10;2.55;;;19.00;44.90;;;;;;6193781;28;20092;-68
2022/03/14 02:58:54;;;;;;;4.28;2.90;;;19.00;45.00;;;;;;6193527;28;20037;-68
2022/03/14 03:01:55;;;;;;;4.47;2.70;;;19.00;44.90;;;;;;6197709;28;20022;-68
2022/03/14 03:04:55;;;;;;;4.40;2.70;;;19.00;44.90;;;;;;6198704;28;20038;-68
2022/03/14 03:07:59;;;;;;;3.83;2.40;;;19.00;45.00;;;;;;6198181;28;20029;-68
2022/03/14 03:11:00;;;;;;;4.35;2.78;;;19.00;44.90;;;;;;6198707;28;20113;-68
2022/03/14 03:14:01;;;;;;;5.03;2.75;;;19.00;45.00;;;;;;6198670;28;20076;-67
2022/03/14 03:17:02;;;;;;;4.43;2.65;;;19.00;45.00;;;;;;6198576;28;20038;-69
2022/03/14 03:20:03;;;;;;;4.03;2.63;;;19.00;44.90;;;;;;6197826;28;20034;-68
2022/03/14 03:23:04;;;;;;;4.25;2.78;;;19.00;44.90;;;;;;6197800;28;20029;-67
2022/03/14 03:26:05;;;;;;;4.53;2.63;;;19.00;45.00;;;;;;6197940;28;20054;-68
2022/03/14 03:29:07;;;;;;;4.18;2.67;;;19.00;44.90;;;;;;6197489;28;20369;-68
2022/03/14 03:32:07;;;;;;;5.25;2.90;;;19.00;44.90;;;;;;6197721;28;20026;-68
2022/03/14 03:35:09;;;;;;;4.78;3.10;;;19.00;44.90;;;;;;6197802;28;20085;-68
2022/03/14 03:38:09;;;;;;;5.60;2.80;;;19.00;45.00;;;;;;6197711;28;20038;-68
2022/03/14 03:41:10;;;;;;;4.85;2.97;;;19.00;45.00;;;;;;6197772;28;20072;-68
2022/03/14 03:44:10;;;;;;;3.97;2.60;;;19.00;45.00;;;;;;6197402;28;20054;-68
2022/03/14 03:47:11;;;;;;;4.28;2.45;;;18.90;44.90;;;;;;6197456;28;20036;-67
2022/03/14 03:50:12;;;;;;;5.10;2.65;;;19.00;44.90;;;;;;6197236;28;20224;-68
2022/03/14 03:53:13;;;;;;;5.13;3.17;;;19.00;45.00;;;;;;6197192;28;20031;-68
2022/03/14 03:56:13;;;;;;;4.20;2.65;;;19.00;44.90;;;;;;6197370;28;20247;-68
2022/03/14 03:59:14;;;;;;;4.97;3.20;;;19.00;45.00;;;;;;6197338;28;20097;-68
2022/03/14 04:02:18;;;;;;;3.70;2.40;;;19.00;45.00;;;;;;6197688;28;20026;-68
2022/03/14 04:05:20;;;;;;;5.38;3.05;;;19.00;45.00;;;;;;6197410;28;20403;-68
2022/03/14 04:08:21;;;;;;;4.63;2.92;;;19.00;45.00;;;;;;6196861;28;20452;-68
2022/03/14 04:11:22;;;;;;;4.38;2.90;;;19.00;45.00;;;;;;6196471;28;20053;-68
2022/03/14 04:14:23;;;;;;;6.03;2.70;;;19.00;45.00;;;;;;6196782;28;20030;-68
2022/03/14 04:17:28;;;;;;;4.95;2.83;;;19.00;45.00;;;;;;6196850;28;20524;-68
2022/03/14 04:20:29;;;;;;;6.30;3.20;;;19.00;45.00;;;;;;6196342;28;20028;-68
2022/03/14 04:23:31;;;;;;;5.20;2.67;;;19.00;45.00;;;;;;6196937;28;20026;-67
2022/03/14 04:26:32;;;;;;;5.10;3.10;;;19.00;45.00;;;;;;6194931;28;20070;-67
2022/03/14 04:29:33;;;;;;;5.82;2.97;;;19.00;45.00;;;;;;6196186;28;20493;-68
2022/03/14 04:32:33;;;;;;;4.90;3.03;;;19.00;45.00;;;;;;6196648;28;20034;-68
2022/03/14 04:35:35;;;;;;;4.78;2.78;;;19.00;45.00;;;;;;6196026;28;20516;-67
2022/03/14 04:38:36;;;;;;;4.93;3.10;;;19.00;45.00;;;;;;6196284;28;20031;-68
2022/03/14 04:41:37;;;;;;;5.10;2.78;;;19.00;45.00;;;;;;6196382;28;20109;-68
2022/03/14 04:44:38;;;;;;;4.65;2.83;;;19.00;45.00;;;;;;6196591;28;20447;-68
2022/03/14 04:47:39;;;;;;;4.65;2.80;;;19.00;45.00;;;;;;6196014;28;20041;-68
2022/03/14 04:50:41;;;;;;;5.35;2.83;;;19.00;45.00;;;;;;6195851;28;20061;-68
2022/03/14 04:53:42;;;;;;;4.32;2.92;;;19.00;45.00;;;;;;6195812;28;20023;-69
2022/03/14 04:56:42;;;;;;;4.20;2.75;;;19.00;45.00;;;;;;6195798;28;20504;-69
2022/03/14 05:00:33;;;;;;;4.32;2.95;;;19.00;45.00;;;;;;6195622;28;20096;-68
2022/03/14 05:03:36;;;;;;;6.28;3.20;;;18.90;44.80;;;;;;6195630;28;20022;-68
2022/03/14 05:06:37;;;;;;;6.30;3.40;;;19.00;45.00;;;;;;6195292;28;20099;-68
2022/03/14 05:09:38;;;;;;;3.88;2.60;;;19.00;45.00;;;;;;6195539;28;20482;-68
2022/03/14 05:12:39;;;;;;;5.32;3.17;;;18.90;44.90;;;;;;6195449;28;20466;-68
2022/03/14 05:15:39;;;;;;;3.33;2.35;;;19.00;45.00;;;;;;6195463;28;20027;-68
2022/03/14 05:18:40;;;;;;;5.20;3.13;;;19.00;45.60;;;;;;6195384;28;20408;-68
2022/03/14 05:21:40;;;;;;;5.22;3.03;;;18.90;44.90;;;;;;6194949;28;20117;-68
2022/03/14 05:24:41;;;;;;;5.28;3.15;;;19.00;44.90;;;;;;6194611;28;20105;-69
2022/03/14 05:27:42;;;;;;;3.90;2.88;;;19.00;45.00;;;;;;6194811;28;20058;-68
2022/03/14 05:30:42;;;;;;;5.07;2.70;;;19.00;44.90;;;;;;6194895;28;20030;-68
2022/03/14 05:33:43;;;;;;;5.28;3.17;;;19.00;44.90;;;;;;6194904;28;20041;-68
2022/03/14 05:36:44;;;;;;;5.38;3.30;;;19.00;44.90;;;;;;6194474;28;20085;-68
2022/03/14 05:39:45;;;;;;;4.55;3.03;;;19.00;44.90;;;;;;6195074;28;20057;-68
2022/03/14 05:42:47;;;;;;;7.18;2.85;;;19.00;44.90;;;;;;6194808;28;20049;-68
2022/03/14 05:45:48;;;;;;;5.00;2.78;;;19.00;44.90;;;;;;6194884;28;20089;-68
2022/03/14 05:48:48;;;;;;;5.55;3.00;;;19.00;44.90;;;;;;6194404;28;20175;-68
2022/03/14 05:51:49;;;;;;;6.85;3.20;;;19.00;44.90;;;;;;6194787;28;20189;-68
2022/03/14 05:54:49;;;;;;;5.13;3.10;;;19.00;44.80;;;;;;6194856;28;20497;-68
2022/03/14 05:57:50;;;;;;;6.00;3.13;;;19.00;44.80;;;;;;6194161;28;20063;-69
2022/03/14 06:00:52;;;;;;;5.47;3.30;;;19.00;44.80;;;;;;6193762;28;20032;-68
2022/03/14 06:03:53;;;;;;;5.10;2.88;;;19.00;44.80;;;;;;6194099;28;20146;-68
2022/03/14 06:06:53;;;;;;;4.40;2.67;;;19.00;44.90;;;;;;6194233;28;20270;-68
2022/03/14 06:09:54;;;;;;;4.85;2.97;;;19.00;44.90;;;;;;6193886;28;20053;-68
2022/03/14 06:12:54;;;;;;;5.53;3.25;;;19.00;44.80;;;;;;6194209;28;20026;-67
2022/03/14 06:15:55;;;;;;;4.07;2.45;;;19.00;44.90;;;;;;6194466;28;20042;-68
2022/03/14 06:18:55;;;;;;;4.13;2.50;;;19.00;44.80;;;;;;6193960;28;20032;-68
2022/03/14 06:21:56;;;;;;;5.65;2.90;;;19.00;44.80;;;;;;6180490;28;20065;-68
2022/03/14 06:24:57;;;;;;;4.80;2.75;;;19.00;44.80;;;;;;6188649;28;20018;-67
2022/03/14 06:27:57;;;;;;;4.75;3.15;;;19.00;44.80;;;;;;6193374;28;20037;-68
2022/03/14 06:30:58;;;;;;;5.15;3.05;;;19.00;44.80;;;;;;6192484;28;20509;-67
2022/03/14 06:33:59;;;;;;;4.63;2.80;;;19.00;44.80;;;;;;6191600;28;20042;-68
2022/03/14 06:36:59;;;;;;;5.03;3.03;;;19.00;44.80;;;;;;6191609;28;20045;-67
2022/03/14 06:40:02;;;;;;;5.18;3.00;;;19.00;44.80;;;;;;6192657;28;20026;-68
2022/03/14 06:43:02;;;;;;;5.22;3.00;;;19.00;44.80;;;;;;6191760;28;20030;-68
2022/03/14 06:46:04;;;;;;;7.22;3.33;;;19.00;44.90;;;;;;6176033;28;20405;-67
2022/03/14 06:49:05;;;;;;;5.38;3.45;;;19.10;44.70;;;;;;6181075;28;20509;-68
2022/03/14 06:52:05;;;;;;;7.03;3.35;;;19.20;44.40;;;;;;6192177;28;20073;-68
2022/03/14 06:55:06;;;;;;;9.95;3.85;;;19.20;44.00;;;;;;6192015;28;20035;-68
2022/03/14 06:58:07;;;;;;;8.15;3.50;;;19.20;44.10;;;;;;6192035;28;20085;-69
2022/03/14 07:01:08;;;;;;;10.15;3.38;;;19.20;44.30;;;;;;6188202;28;20041;-68
2022/03/14 07:04:09;;;;;;;8.63;4.65;;;19.20;44.50;;;;;;6210001;28;20018;-69
2022/03/14 07:07:11;;;;;;;9.38;4.32;;;19.20;44.30;;;;;;6196417;28;20084;-68
2022/03/14 07:10:13;;;;;;;7.72;3.90;;;19.10;44.10;;;;;;6216137;28;20026;-69
2022/03/14 07:13:14;;;;;;;9.40;3.97;;;19.10;44.20;;;;;;6215737;28;20034;-69
2022/03/14 07:16:15;;;;;;;11.07;4.10;;;19.10;44.30;;;;;;6193654;28;20065;-69
2022/03/14 07:19:15;;;;;;;7.40;4.00;;;19.10;44.40;;;;;;6193742;28;20393;-68
2022/03/14 07:22:19;;;;;;;9.07;4.22;;;19.10;44.40;;;;;;6193958;28;20037;-69
2022/03/14 07:25:21;;;;;;;8.32;3.72;;;19.10;44.40;;;;;;6193851;28;20042;-69
2022/03/14 07:28:22;;;;;;;8.95;4.70;;;19.10;44.50;;;;;;6191904;28;20038;-69
2022/03/14 07:31:23;;;;;;;8.23;4.40;;;19.10;44.50;;;;;;6194072;28;20030;-68
2022/03/14 07:34:23;;;;;;;7.88;4.43;;;19.10;44.50;;;;;;6194298;28;20117;-69
2022/03/14 07:37:24;;;;;;;7.97;4.35;;;19.10;44.60;;;;;;6193875;28;20400;-69
2022/03/14 07:40:24;;;;;;;9.73;4.72;;;19.10;44.60;;;;;;6193617;28;20501;-69
2022/03/14 07:43:25;;;;;;;9.00;4.85;;;19.10;44.50;;;;;;6193473;28;20026;-69
2022/03/14 07:46:26;;;;;;;14.30;5.05;;;19.10;44.40;;;;;;6193816;28;20069;-70
2022/03/14 07:49:27;;;;;;;9.10;4.63;;;19.10;44.40;;;;;;6197814;28;20033;-69
2022/03/14 07:52:27;;;;;;;7.55;4.40;;;19.10;44.40;;;;;;6197697;28;20444;-69
2022/03/14 07:55:28;;;;;;;9.77;4.85;;;19.10;44.50;;;;;;6201867;28;20472;-68
2022/03/14 07:58:29;;;;;;;7.35;4.57;;;19.10;44.50;;;;;;6196457;28;20026;-69
2022/03/14 08:01:29;;;;;;;8.82;4.60;;;19.10;44.50;;;;;;6198280;28;20885;-68
2022/03/14 08:04:31;;;;;;;10.05;4.70;;;19.10;44.50;;;;;;6197698;28;20030;-69
2022/03/14 08:07:32;;;;;;;7.88;4.60;;;19.10;44.50;;;;;;6197751;28;20070;-69
2022/03/14 08:10:32;;;;;;;7.90;4.35;;;19.10;44.60;;;;;;6197467;28;20042;-67
2022/03/14 08:13:34;;;;;;;7.93;4.15;;;19.10;44.60;;;;;;6197528;28;20469;-69
2022/03/14 08:16:34;;;;;;;8.15;4.45;;;19.10;44.60;;;;;;6197294;28;20043;-68
2022/03/14 08:19:35;;;;;;;7.40;3.97;;;19.10;44.60;;;;;;6197479;28;20034;-69
2022/03/14 08:22:35;;;;;;;8.63;4.40;;;19.10;44.60;;;;;;6196385;28;20034;-69
2022/03/14 08:25:36;;;;;;;8.57;4.25;;;19.10;44.60;;;;;;6196091;28;20483;-69
2022/03/14 08:28:38;;;;;;;7.18;4.22;;;19.10;44.60;;;;;;6196856;28;20030;-69
2022/03/14 08:31:38;;;;;;;9.07;4.45;;;19.10;44.60;;;;;;6198055;28;20110;-69
2022/03/14 08:34:39;;;;;;;7.10;4.20;;;19.10;44.60;;;;;;6199820;28;20034;-69
2022/03/14 08:37:45;;;;;;;9.07;4.95;;;19.10;44.70;;;;;;6196935;28;20058;-69
2022/03/14 08:40:46;;;;;;;8.60;5.03;;;19.10;44.60;;;;;;6196627;28;20039;-69
2022/03/14 08:43:47;;;;;;;9.18;5.15;;;19.10;43.60;;;;;;6196903;28;20381;-68
2022/03/14 08:46:47;;;;;;;10.63;6.50;;;19.10;43.50;;;;;;6196884;28;20437;-69
2022/03/14 08:49:48;;;;;;;13.90;6.57;;;19.00;42.40;;;;;;6195930;28;20031;-68
2022/03/14 08:52:48;;;;;;;15.43;7.53;;;19.00;40.50;;;;;;6196197;28;20109;-69
2022/03/14 08:55:49;;;;;;;12.38;6.45;;;19.00;40.80;;;;;;6196763;28;20027;-69
2022/03/14 08:58:49;;;;;;;13.55;6.60;;;19.10;41.00;;;;;;6196228;28;20042;-68
2022/03/14 09:01:50;;;;;;;12.77;6.43;;;19.10;41.00;;;;;;6196087;28;20026;-68
2022/03/14 09:04:50;;;;;;;15.23;7.35;;;19.20;40.90;;;;;;6196371;28;20041;-68
2022/03/14 09:07:52;;;;;;;15.07;6.47;;;19.20;40.80;;;;;;6196049;28;20058;-68
2022/03/14 09:10:56;;;;;;;11.93;6.97;;;19.20;40.70;;;;;;6185205;28;20034;-68
2022/03/14 09:13:57;;;;;;;12.68;6.03;;;19.20;40.50;;;;;;6172241;28;20047;-68
2022/03/14 09:16:58;;;;;;;13.13;6.93;;;19.20;41.60;;;;;;6171906;28;20043;-69
2022/03/14 09:20:01;;;;;;;12.45;6.97;;;19.20;42.30;;;;;;6175028;28;20392;-68
2022/03/14 09:23:02;;;;;;;15.88;6.40;;;19.10;42.60;;;;;;6192810;28;20023;-69
2022/03/14 09:26:02;;;;;;;15.80;6.72;;;19.10;42.00;;;;;;6171563;28;20058;-69
2022/03/14 09:29:04;;;;;;;15.82;6.88;;;19.00;42.50;;;;;;6192369;28;20039;-69
2022/03/14 09:32:05;;;;;;;13.30;6.50;;;19.00;42.60;;;;;;6195275;28;20031;-69
2022/03/14 09:35:08;;;;;;;11.70;6.80;;;18.90;42.40;;;;;;6195547;28;20436;-69
2022/03/14 09:38:11;;;;;;;17.10;7.68;;;18.90;42.00;;;;;;6195455;28;20059;-68
2022/03/14 09:41:16;;;;;;;12.80;6.90;;;18.80;41.70;;;;;;6197957;28;20025;-68
2022/03/14 09:44:20;;;;;;;14.45;7.22;;;18.80;41.40;;;;;;6195585;28;20101;-69
2022/03/14 09:47:24;;;;;;;14.45;7.65;;;18.80;41.20;;;;;;6195763;28;20015;-68
2022/03/14 09:50:32;;;;;;;15.38;7.30;;;18.80;40.40;;;;;;6187436;28;20098;-68
2022/03/14 09:53:35;;;;;;;15.82;8.60;;;18.80;39.80;;;;;;6195940;28;20417;-68
2022/03/14 09:56:37;;;;;;;14.27;7.72;;;18.70;39.10;;;;;;6195622;28;20072;-68
2022/03/14 09:59:39;;;;;;;18.55;8.45;;;18.70;39.80;;;;;;6191778;28;20113;-68
2022/03/14 10:02:44;;;;;;;17.25;8.43;;;18.70;38.10;;;;;;6194127;28;20106;-68
2022/03/14 10:05:45;;;;;;;;;;;18.70;38.50;;;;;;6194149;28;20477;-69
2022/03/14 10:08:45;;;;;;;17.50;8.35;;;18.70;38.40;;;;;;6194643;28;19917;-69
2022/03/14 10:11:46;;;;;;;17.20;8.10;;;18.70;38.30;;;;;;6193690;28;20050;-69
2022/03/14 10:14:47;;;;;;;18.73;9.25;;;18.70;38.30;;;;;;6194806;28;20129;-69
2022/03/14 10:17:48;;;;;;;15.40;8.88;;;18.70;36.50;;;;;;6193618;28;20125;-69
2022/03/14 10:21:05;;;;;;;16.33;9.32;;;18.80;34.30;;;;;;6194689;28;20528;-69
2022/03/14 10:24:11;;;;;;;16.58;8.50;;;18.80;34.00;;;;;;6194886;28;20026;-69
2022/03/14 10:27:16;;;;;;;13.70;8.02;;;18.80;35.10;;;;;;6193587;28;20057;-69
2022/03/14 10:30:31;;;;;;;13.30;8.05;;;18.90;36.00;;;;;;6194839;28;20449;-69
2022/03/14 10:33:33;;;;;;;16.58;7.80;;;18.90;36.50;;;;;;6194297;28;20078;-68
2022/03/14 10:36:43;;;;;;;15.23;8.00;;;18.90;36.90;;;;;;6194289;28;20038;-68
2022/03/14 10:39:44;;;;;;;13.95;8.00;;;18.90;37.10;;;;;;6194647;28;20065;-68
2022/03/14 10:42:44;;;;;;;13.38;7.50;;;18.90;37.30;;;;;;6193891;28;20027;-69
2022/03/14 10:45:45;;;;;;;14.40;8.13;;;18.90;37.60;;;;;;6194430;28;20026;-69
2022/03/14 10:48:46;;;;;;;11.77;6.68;;;18.90;37.50;;;;;;6194216;28;20027;-68
2022/03/14 10:51:58;;;;;;;12.20;7.38;;;19.00;37.80;;;;;;6194048;28;20488;-68
2022/03/14 10:54:58;;;;;;;14.27;7.72;;;18.90;38.10;;;;;;6194379;28;20113;-69
2022/03/14 10:58:07;;;;;;;12.10;7.07;;;19.00;38.50;;;;;;6194455;28;20528;-69
2022/03/14 11:01:09;;;;;;;11.00;7.28;;;18.90;38.70;;;;;;6193848;28;20034;-69
2022/03/14 11:04:10;;;;;;;12.10;7.10;;;19.00;38.80;;;;;;6194089;28;20022;-69
2022/03/14 11:07:12;;;;;;;10.38;6.30;;;18.90;39.00;;;;;;6194321;28;20403;-68
2022/03/14 11:10:12;;;;;;;12.27;7.00;;;19.00;39.20;;;;;;6185392;28;20122;-68
2022/03/14 11:13:13;;;;;;;12.30;7.13;;;18.90;39.30;;;;;;6169554;28;20027;-69
2022/03/14 11:16:28;;;;;;;11.88;6.85;;;19.00;39.50;;;;;;6169970;28;20035;-69
2022/03/14 11:19:29;;;;;;;10.00;6.53;;;19.00;39.50;;;;;;6170126;28;20031;-69
2022/03/14 11:22:31;;;;;;;13.90;7.30;;;19.00;39.80;;;;;;6172606;28;20026;-69
2022/03/14 11:25:32;;;;;;;11.57;6.40;;;19.00;39.70;;;;;;6174230;28;20061;-68
2022/03/14 11:28:34;;;;;;;10.73;6.43;;;19.00;39.80;;;;;;6189954;28;20521;-68
2022/03/14 11:31:35;;;;;;;12.02;6.80;;;19.00;40.00;;;;;;6198531;28;20034;-69
2022/03/14 11:34:36;;;;;;;10.65;6.13;;;19.00;40.10;;;;;;6199112;28;20397;-69
2022/03/14 11:37:41;;;;;;;8.70;5.35;;;19.00;40.20;;;;;;6199635;28;20508;-69
2022/03/14 11:40:42;;;;;;;;;;;19.00;40.30;;;;;;6200233;28;20504;-69
2022/03/14 11:43:44;;;;;;;9.80;5.28;;;19.00;40.30;;;;;;6199726;28;19909;-69
2022/03/14 11:46:46;;;;;;;9.23;5.88;;;19.00;40.40;;;;;;6199574;28;20335;-69
2022/03/14 11:49:47;;;;;;;12.10;5.82;;;19.00;40.60;;;;;;6199563;28;20408;-68
2022/03/14 11:52:55;;;;;;;10.75;6.50;;;19.00;40.60;;;;;;6198985;28;20026;-69
2022/03/14 11:55:57;;;;;;;9.48;5.78;;;19.00;40.60;;;;;;6199298;28;20034;-69
2022/03/14 11:59:00;;;;;;;9.20;5.53;;;19.00;40.70;;;;;;6199536;28;20027;-69
2022/03/14 12:02:02;;;;;;;9.80;6.30;;;19.00;40.80;;;;;;6199274;28;20053;-69
2022/03/14 12:05:03;;;;;;;9.55;5.97;;;19.00;40.80;;;;;;6199199;28;20033;-69
2022/03/14 12:08:28;;;;;;;8.32;5.70;;;19.00;40.90;;;;;;6198839;28;20026;-69
2022/03/14 12:11:32;;;;;;;10.02;5.43;;;19.00;40.90;;;;;;6198991;28;20445;-68
2022/03/14 12:14:42;;;;;;;9.23;5.68;;;19.00;40.90;;;;;;6199068;28;20089;-69
2022/03/14 12:17:45;;;;;;;9.02;5.70;;;19.00;41.00;;;;;;6198485;28;20042;-69
2022/03/14 12:20:46;;;;;;;11.57;6.03;;;19.00;41.10;;;;;;6198879;28;20038;-69
2022/03/14 12:23:52;;;;;;;10.45;5.45;;;19.00;41.10;;;;;;6198740;28;20026;-69
2022/03/14 12:26:59;;;;;;;8.98;5.43;;;19.00;41.20;;;;;;6198362;28;20105;-69
2022/03/14 12:30:06;;;;;;;7.70;5.10;;;19.00;41.20;;;;;;6198982;28;20027;-69
2022/03/14 12:33:07;;;;;;;10.20;5.07;;;19.00;41.20;;;;;;6197755;28;20034;-69
2022/03/14 12:36:39;;;;;;;9.35;5.38;;;19.00;41.20;;;;;;6198851;28;20036;-69
2022/03/14 12:39:39;;;;;;;8.27;5.57;;;19.00;42.00;;;;;;6198095;28;20038;-69
2022/03/14 12:42:43;;;;;;;9.27;5.18;;;19.00;41.30;;;;;;6198165;28;20441;-69
2022/03/14 12:45:48;;;;;;;8.40;5.65;;;19.00;41.40;;;;;;6198261;28;20030;-69
2022/03/14 12:48:54;;;;;;;7.97;5.43;;;19.00;41.40;;;;;;6198155;28;20485;-68
2022/03/14 12:52:14;;;;;;;8.65;5.10;;;19.00;41.60;;;;;;6198055;28;20031;-69
2022/03/14 12:55:19;;;;;;;8.93;5.50;;;19.00;41.60;;;;;;6198028;28;20106;-69
2022/03/14 12:58:22;;;;;;;7.93;5.30;;;19.00;42.20;;;;;;6197763;28;20034;-69
2022/03/14 13:01:24;;;;;;;9.05;4.78;;;19.00;41.70;;;;;;6212917;28;20030;-68
2022/03/14 13:04:24;;;;;;;7.55;4.85;;;19.00;41.60;;;;;;6197030;28;20026;-69
2022/03/14 13:07:26;;;;;;;7.15;4.72;;;19.00;41.60;;;;;;6176963;28;20571;-69
2022/03/14 13:10:38;;;;;;;8.05;4.90;;;19.00;41.70;;;;;;6194676;28;20041;-69
2022/03/14 13:13:38;;;;;;;9.00;4.93;;;19.00;41.70;;;;;;6193039;28;20507;-68
2022/03/14 13:16:41;;;;;;;9.10;5.15;;;19.00;41.70;;;;;;6193054;28;20042;-69
2022/03/14 13:19:41;;;;;;;7.68;4.60;;;19.00;41.70;;;;;;6194338;28;20089;-68
2022/03/14 13:22:42;;;;;;;8.75;5.43;;;19.00;41.80;;;;;;6194722;28;20449;-69
2022/03/14 13:25:50;;;;;;;6.63;4.63;;;19.00;41.80;;;;;;6193054;28;20429;-69
2022/03/14 13:28:52;;;;;;;7.28;4.50;;;19.00;41.80;;;;;;6195121;28;20110;-69
2022/03/14 13:31:53;;;;;;;7.88;4.57;;;19.00;41.90;;;;;;6193841;28;21119;-69
2022/03/14 13:35:06;;;;;;;8.18;5.15;;;19.00;41.90;;;;;;6198418;28;20033;-68
2022/03/14 13:38:07;;;;;;;8.18;4.53;;;19.00;42.00;;;;;;6200879;28;20045;-68
2022/03/14 13:41:11;;;;;;;6.85;4.20;;;19.00;42.00;;;;;;6194689;28;20022;-68
2022/03/14 13:44:16;;;;;;;6.70;4.35;;;19.00;42.10;;;;;;6193870;28;20062;-69
2022/03/14 13:47:23;;;;;;;6.70;4.38;;;19.00;42.00;;;;;;6194748;28;20041;-69
2022/03/14 13:50:25;;;;;;;6.38;4.10;;;19.00;42.00;;;;;;6194533;28;20358;-69
2022/03/14 13:53:26;;;;;;;6.72;4.43;;;19.00;42.00;;;;;;6194132;28;20022;-68
2022/03/14 13:56:33;;;;;;;6.15;4.13;;;19.00;42.10;;;;;;6193615;28;20145;-69
2022/03/14 13:59:39;;;;;;;6.18;4.30;;;19.00;42.10;;;;;;6203198;28;20034;-69
2022/03/14 14:02:39;;;;;;;6.55;4.20;;;19.00;42.10;;;;;;6213082;28;20037;-69
2022/03/14 14:05:40;;;;;;;7.25;4.43;;;19.00;42.20;;;;;;6193827;28;20406;-68
2022/03/14 14:08:41;;;;;;;6.53;4.10;;;19.00;42.20;;;;;;6194115;28;20033;-69
2022/03/14 14:12:04;;;;;;;6.68;4.50;;;19.00;42.20;;;;;;6202099;28;20425;-69
2022/03/14 14:15:07;;;;;;;7.25;4.20;;;19.00;42.20;;;;;;6218479;28;20026;-69
2022/03/14 14:18:23;;;;;;;6.10;3.85;;;19.00;42.30;;;;;;6217849;28;20409;-69
2022/03/14 14:21:24;;;;;;;5.63;3.70;;;19.00;42.30;;;;;;6216861;28;20025;-68
2022/03/14 14:24:25;;;;;;;5.00;3.78;;;19.00;42.30;;;;;;6194416;28;20125;-68
2022/03/14 14:27:29;;;;;;;6.53;3.85;;;19.00;42.40;;;;;;6192428;28;20070;-69
2022/03/14 14:30:43;;;;;;;6.15;4.10;;;19.00;42.40;;;;;;6193719;28;20034;-68
2022/03/14 14:33:43;;;;;;;7.05;4.20;;;19.00;42.40;;;;;;6193864;28;20604;-70
2022/03/14 14:36:44;;;;;;;6.22;3.67;;;19.10;42.50;;;;;;6193592;28;20038;-69
2022/03/14 14:39:44;;;;;;;5.55;3.63;;;19.00;42.40;;;;;;6193551;28;20466;-68
2022/03/14 14:42:45;;;;;;;6.45;3.97;;;19.00;42.50;;;;;;6192530;28;20033;-69
2022/03/14 14:45:46;;;;;;;5.25;3.65;;;19.10;42.50;;;;;;6193692;28;20030;-69
2022/03/14 14:48:50;;;;;;;6.28;4.10;;;19.00;42.50;;;;;;6193455;28;20159;-69
2022/03/14 14:51:50;;;;;;;7.20;4.10;;;19.00;42.60;;;;;;6193315;28;20030;-69
2022/03/14 14:54:54;;;;;;;5.80;4.05;;;19.00;42.60;;;;;;6193702;28;20031;-69
2022/03/14 14:57:55;;;;;;;5.55;3.60;;;19.00;42.60;;;;;;6196364;28;20061;-69
2022/03/14 15:00:56;;;;;;;5.80;3.80;;;19.00;42.60;;;;;;6211684;28;20038;-69
2022/03/14 15:03:58;;;;;;;6.75;4.00;;;19.00;42.70;;;;;;6198384;28;20077;-68
2022/03/14 15:06:58;;;;;;;7.32;4.03;;;19.00;42.60;;;;;;6197534;28;20038;-68
2022/03/14 15:09:59;;;;;;;5.82;3.83;;;19.00;42.70;;;;;;6197849;28;20441;-69
2022/03/14 15:13:00;;;;;;;7.22;3.75;;;19.00;42.70;;;;;;6197106;28;20036;-69
2022/03/14 15:16:00;;;;;;;5.75;3.72;;;19.00;42.70;;;;;;6197594;28;20117;-69
2022/03/14 15:19:02;;;;;;;5.40;3.72;;;19.00;42.70;;;;;;6217676;28;20384;-69
2022/03/14 15:22:03;;;;;;;5.80;3.70;;;19.10;42.80;;;;;;6218508;28;20042;-69
2022/03/14 15:25:06;;;;;;;5.78;3.42;;;19.10;42.80;;;;;;6197070;28;20413;-68
2022/03/14 15:28:07;;;;;;;7.50;3.90;;;19.00;42.80;;;;;;6197510;28;20157;-69
2022/03/14 15:31:07;;;;;;;6.68;3.85;;;19.10;42.80;;;;;;6197840;28;20038;-69
2022/03/14 15:34:08;;;;;;;6.47;3.85;;;19.00;42.80;;;;;;6197494;28;20019;-69
2022/03/14 15:37:08;;;;;;;6.70;3.83;;;19.00;42.90;;;;;;6197935;28;20061;-69
2022/03/14 15:40:11;;;;;;;5.47;3.70;;;19.10;42.90;;;;;;6197619;28;20073;-68
2022/03/14 15:43:11;;;;;;;6.65;3.90;;;19.00;42.90;;;;;;6197541;28;20501;-68
2022/03/14 15:46:12;;;;;;;6.57;3.63;;;19.00;42.90;;;;;;6197210;28;20073;-69